sensor_id;sensor_type;location;lat;lon;timestamp;P1;durP1;ratioP1;P2;durP2;ratioP2
19927;SDS011;10126;50.876;4.470;2022-12-18T00:00:20;0.90;;;0.90;;
19927;SDS011;10126;50.876;4.470;2022-12-18T00:02:21;0.90;;;0.90;;
19927;SDS011;10126;50.876;4.470;2022-12-18T00:04:22;0.87;;;0.87;;
19927;SDS011;10126;50.876;4.470;2022-12-18T00:06:24;1.00;;;1.00;;
19927;SDS011;10126;50.876;4.470;2022-12-18T00:08:27;0.80;;;0.80;;
19927;SDS011;10126;50.876;4.470;2022-12-18T00:10:28;0.80;;;0.80;;
19927;SDS011;10126;50.876;4.470;2022-12-18T00:12:29;0.80;;;0.80;;
19927;SDS011;10126;50.876;4.470;2022-12-18T00:14:29;0.90;;;0.90;;
19927;SDS011;10126;50.876;4.470;2022-12-18T00:16:31;0.70;;;0.70;;
19927;SDS011;10126;50.876;4.470;2022-12-18T00:18:33;0.80;;;0.80;;
19927;SDS011;10126;50.876;4.470;2022-12-18T00:20:37;0.80;;;0.80;;
19927;SDS011;10126;50.876;4.470;2022-12-18T00:22:38;0.80;;;0.80;;
19927;SDS011;10126;50.876;4.470;2022-12-18T00:24:39;0.80;;;0.80;;
19927;SDS011;10126;50.876;4.470;2022-12-18T00:26:40;0.90;;;0.90;;
19927;SDS011;10126;50.876;4.470;2022-12-18T00:28:41;0.80;;;0.80;;
19927;SDS011;10126;50.876;4.470;2022-12-18T00:30:42;0.70;;;0.70;;
19927;SDS011;10126;50.876;4.470;2022-12-18T00:32:42;0.90;;;0.90;;
19927;SDS011;10126;50.876;4.470;2022-12-18T00:34:43;0.70;;;0.70;;
19927;SDS011;10126;50.876;4.470;2022-12-18T00:36:44;0.90;;;0.90;;
19927;SDS011;10126;50.876;4.470;2022-12-18T00:38:47;0.90;;;0.90;;
19927;SDS011;10126;50.876;4.470;2022-12-18T00:40:48;0.90;;;0.90;;
19927;SDS011;10126;50.876;4.470;2022-12-18T00:42:49;0.70;;;0.70;;
19927;SDS011;10126;50.876;4.470;2022-12-18T00:44:55;0.70;;;0.70;;
19927;SDS011;10126;50.876;4.470;2022-12-18T00:46:55;0.80;;;0.80;;
19927;SDS011;10126;50.876;4.470;2022-12-18T00:48:59;0.70;;;0.70;;
19927;SDS011;10126;50.876;4.470;2022-12-18T00:51:00;0.67;;;0.67;;
19927;SDS011;10126;50.876;4.470;2022-12-18T00:53:01;0.80;;;0.80;;
19927;SDS011;10126;50.876;4.470;2022-12-18T00:55:01;0.80;;;0.80;;
19927;SDS011;10126;50.876;4.470;2022-12-18T00:57:02;0.80;;;0.80;;
19927;SDS011;10126;50.876;4.470;2022-12-18T00:59:03;0.80;;;0.80;;
19927;SDS011;10126;50.876;4.470;2022-12-18T01:01:04;0.80;;;0.80;;
19927;SDS011;10126;50.876;4.470;2022-12-18T01:03:05;0.70;;;0.70;;
19927;SDS011;10126;50.876;4.470;2022-12-18T01:05:06;0.57;;;0.57;;
19927;SDS011;10126;50.876;4.470;2022-12-18T01:07:07;0.70;;;0.70;;
19927;SDS011;10126;50.876;4.470;2022-12-18T01:09:08;0.80;;;0.80;;
19927;SDS011;10126;50.876;4.470;2022-12-18T01:11:16;0.70;;;0.70;;
19927;SDS011;10126;50.876;4.470;2022-12-18T01:13:17;0.90;;;0.90;;
19927;SDS011;10126;50.876;4.470;2022-12-18T01:15:18;0.80;;;0.80;;
19927;SDS011;10126;50.876;4.470;2022-12-18T01:17:19;0.70;;;0.70;;
19927;SDS011;10126;50.876;4.470;2022-12-18T01:19:20;0.70;;;0.70;;
19927;SDS011;10126;50.876;4.470;2022-12-18T01:21:21;0.77;;;0.77;;
19927;SDS011;10126;50.876;4.470;2022-12-18T01:23:22;0.80;;;0.80;;
19927;SDS011;10126;50.876;4.470;2022-12-18T01:25:23;0.80;;;0.80;;
19927;SDS011;10126;50.876;4.470;2022-12-18T01:27:24;0.90;;;0.90;;
19927;SDS011;10126;50.876;4.470;2022-12-18T01:29:24;0.87;;;0.87;;
19927;SDS011;10126;50.876;4.470;2022-12-18T01:31:26;0.80;;;0.80;;
19927;SDS011;10126;50.876;4.470;2022-12-18T01:33:28;0.80;;;0.80;;
19927;SDS011;10126;50.876;4.470;2022-12-18T01:35:29;0.80;;;0.80;;
19927;SDS011;10126;50.876;4.470;2022-12-18T01:37:29;0.70;;;0.70;;
19927;SDS011;10126;50.876;4.470;2022-12-18T01:39:30;0.80;;;0.80;;
19927;SDS011;10126;50.876;4.470;2022-12-18T01:41:32;0.77;;;0.77;;
19927;SDS011;10126;50.876;4.470;2022-12-18T01:43:56;0.80;;;0.80;;
19927;SDS011;10126;50.876;4.470;2022-12-18T01:45:59;0.70;;;0.70;;
19927;SDS011;10126;50.876;4.470;2022-12-18T01:48:04;0.80;;;0.80;;
19927;SDS011;10126;50.876;4.470;2022-12-18T01:52:21;0.77;;;0.77;;
19927;SDS011;10126;50.876;4.470;2022-12-18T01:54:22;0.80;;;0.80;;
19927;SDS011;10126;50.876;4.470;2022-12-18T01:56:23;0.70;;;0.70;;
19927;SDS011;10126;50.876;4.470;2022-12-18T01:58:30;0.73;;;0.73;;
19927;SDS011;10126;50.876;4.470;2022-12-18T02:00:39;0.80;;;0.80;;
19927;SDS011;10126;50.876;4.470;2022-12-18T02:02:40;0.80;;;0.80;;
19927;SDS011;10126;50.876;4.470;2022-12-18T02:04:42;0.90;;;0.90;;
19927;SDS011;10126;50.876;4.470;2022-12-18T02:06:43;0.80;;;0.80;;
19927;SDS011;10126;50.876;4.470;2022-12-18T02:08:53;0.70;;;0.70;;
19927;SDS011;10126;50.876;4.470;2022-12-18T02:11:19;0.93;;;0.93;;
19927;SDS011;10126;50.876;4.470;2022-12-18T02:17:57;1.10;;;1.10;;
19927;SDS011;10126;50.876;4.470;2022-12-18T02:20:18;1.07;;;1.07;;
19927;SDS011;10126;50.876;4.470;2022-12-18T02:22:25;0.90;;;0.90;;
19927;SDS011;10126;50.876;4.470;2022-12-18T02:27:22;0.80;;;0.80;;
19927;SDS011;10126;50.876;4.470;2022-12-18T02:30:06;0.80;;;0.80;;
19927;SDS011;10126;50.876;4.470;2022-12-18T02:31:53;0.90;;;0.90;;
19927;SDS011;10126;50.876;4.470;2022-12-18T02:33:57;0.80;;;0.80;;
19927;SDS011;10126;50.876;4.470;2022-12-18T02:36:01;0.90;;;0.90;;
19927;SDS011;10126;50.876;4.470;2022-12-18T02:38:03;0.80;;;0.80;;
19927;SDS011;10126;50.876;4.470;2022-12-18T02:40:05;0.73;;;0.73;;
19927;SDS011;10126;50.876;4.470;2022-12-18T02:42:06;0.87;;;0.87;;
19927;SDS011;10126;50.876;4.470;2022-12-18T02:44:09;1.10;;;1.10;;
19927;SDS011;10126;50.876;4.470;2022-12-18T02:48:43;0.90;;;0.90;;
19927;SDS011;10126;50.876;4.470;2022-12-18T02:50:45;0.90;;;0.90;;
19927;SDS011;10126;50.876;4.470;2022-12-18T02:53:15;0.90;;;0.90;;
19927;SDS011;10126;50.876;4.470;2022-12-18T02:58:10;1.00;;;1.00;;
19927;SDS011;10126;50.876;4.470;2022-12-18T03:00:14;0.90;;;0.90;;
19927;SDS011;10126;50.876;4.470;2022-12-18T03:04:38;0.70;;;0.70;;
19927;SDS011;10126;50.876;4.470;2022-12-18T03:06:44;0.80;;;0.80;;
19927;SDS011;10126;50.876;4.470;2022-12-18T03:08:49;0.90;;;0.90;;
19927;SDS011;10126;50.876;4.470;2022-12-18T03:11:02;0.80;;;0.80;;
19927;SDS011;10126;50.876;4.470;2022-12-18T03:13:09;0.80;;;0.80;;
19927;SDS011;10126;50.876;4.470;2022-12-18T03:15:26;1.00;;;1.00;;
19927;SDS011;10126;50.876;4.470;2022-12-18T03:17:31;0.80;;;0.80;;
19927;SDS011;10126;50.876;4.470;2022-12-18T03:19:33;0.90;;;0.90;;
19927;SDS011;10126;50.876;4.470;2022-12-18T03:21:41;0.90;;;0.90;;
19927;SDS011;10126;50.876;4.470;2022-12-18T03:23:47;0.90;;;0.90;;
19927;SDS011;10126;50.876;4.470;2022-12-18T03:25:50;0.97;;;0.97;;
19927;SDS011;10126;50.876;4.470;2022-12-18T03:27:53;1.20;;;1.20;;
19927;SDS011;10126;50.876;4.470;2022-12-18T03:30:05;0.80;;;0.80;;
19927;SDS011;10126;50.876;4.470;2022-12-18T03:32:11;0.73;;;0.73;;
19927;SDS011;10126;50.876;4.470;2022-12-18T03:34:17;0.80;;;0.80;;
19927;SDS011;10126;50.876;4.470;2022-12-18T03:36:23;0.80;;;0.80;;
19927;SDS011;10126;50.876;4.470;2022-12-18T03:38:24;0.83;;;0.83;;
19927;SDS011;10126;50.876;4.470;2022-12-18T03:43:03;0.70;;;0.70;;
19927;SDS011;10126;50.876;4.470;2022-12-18T03:45:26;0.70;;;0.70;;
19927;SDS011;10126;50.876;4.470;2022-12-18T03:47:40;0.77;;;0.77;;
19927;SDS011;10126;50.876;4.470;2022-12-18T03:50:07;0.80;;;0.80;;
19927;SDS011;10126;50.876;4.470;2022-12-18T03:52:20;0.80;;;0.80;;
19927;SDS011;10126;50.876;4.470;2022-12-18T03:54:23;0.87;;;0.87;;
19927;SDS011;10126;50.876;4.470;2022-12-18T03:56:28;0.80;;;0.80;;
19927;SDS011;10126;50.876;4.470;2022-12-18T03:58:31;0.80;;;0.80;;
19927;SDS011;10126;50.876;4.470;2022-12-18T04:00:35;0.70;;;0.70;;
19927;SDS011;10126;50.876;4.470;2022-12-18T04:02:36;0.83;;;0.83;;
19927;SDS011;10126;50.876;4.470;2022-12-18T04:04:42;0.70;;;0.70;;
19927;SDS011;10126;50.876;4.470;2022-12-18T04:06:45;0.80;;;0.80;;
19927;SDS011;10126;50.876;4.470;2022-12-18T04:08:47;0.90;;;0.90;;
19927;SDS011;10126;50.876;4.470;2022-12-18T04:10:50;0.80;;;0.80;;
19927;SDS011;10126;50.876;4.470;2022-12-18T04:12:51;0.80;;;0.80;;
19927;SDS011;10126;50.876;4.470;2022-12-18T04:14:56;0.90;;;0.90;;
19927;SDS011;10126;50.876;4.470;2022-12-18T04:16:56;0.83;;;0.83;;
19927;SDS011;10126;50.876;4.470;2022-12-18T04:18:57;0.83;;;0.83;;
19927;SDS011;10126;50.876;4.470;2022-12-18T04:20:58;0.90;;;0.90;;
19927;SDS011;10126;50.876;4.470;2022-12-18T04:22:58;0.90;;;0.90;;
19927;SDS011;10126;50.876;4.470;2022-12-18T04:24:59;0.70;;;0.70;;
19927;SDS011;10126;50.876;4.470;2022-12-18T04:27:00;0.80;;;0.80;;
19927;SDS011;10126;50.876;4.470;2022-12-18T04:29:00;0.70;;;0.70;;
19927;SDS011;10126;50.876;4.470;2022-12-18T04:31:01;0.70;;;0.70;;
19927;SDS011;10126;50.876;4.470;2022-12-18T04:33:02;0.80;;;0.80;;
19927;SDS011;10126;50.876;4.470;2022-12-18T04:35:03;0.73;;;0.73;;
19927;SDS011;10126;50.876;4.470;2022-12-18T04:37:06;0.80;;;0.80;;
19927;SDS011;10126;50.876;4.470;2022-12-18T04:39:07;0.60;;;0.60;;
19927;SDS011;10126;50.876;4.470;2022-12-18T04:41:07;0.90;;;0.90;;
19927;SDS011;10126;50.876;4.470;2022-12-18T04:43:08;0.90;;;0.90;;
19927;SDS011;10126;50.876;4.470;2022-12-18T04:45:09;1.07;;;1.07;;
19927;SDS011;10126;50.876;4.470;2022-12-18T04:47:09;1.00;;;1.00;;
19927;SDS011;10126;50.876;4.470;2022-12-18T04:49:10;0.90;;;0.90;;
19927;SDS011;10126;50.876;4.470;2022-12-18T04:51:11;1.03;;;1.03;;
19927;SDS011;10126;50.876;4.470;2022-12-18T04:53:11;1.00;;;1.00;;
19927;SDS011;10126;50.876;4.470;2022-12-18T04:55:12;0.73;;;0.73;;
19927;SDS011;10126;50.876;4.470;2022-12-18T04:57:13;0.73;;;0.73;;
19927;SDS011;10126;50.876;4.470;2022-12-18T04:59:13;0.70;;;0.70;;
19927;SDS011;10126;50.876;4.470;2022-12-18T05:01:15;0.67;;;0.67;;
19927;SDS011;10126;50.876;4.470;2022-12-18T05:03:16;0.70;;;0.70;;
19927;SDS011;10126;50.876;4.470;2022-12-18T05:05:17;0.80;;;0.80;;
19927;SDS011;10126;50.876;4.470;2022-12-18T05:07:18;0.80;;;0.80;;
19927;SDS011;10126;50.876;4.470;2022-12-18T05:09:18;0.80;;;0.80;;
19927;SDS011;10126;50.876;4.470;2022-12-18T05:11:19;0.77;;;0.77;;
19927;SDS011;10126;50.876;4.470;2022-12-18T05:13:20;0.80;;;0.80;;
19927;SDS011;10126;50.876;4.470;2022-12-18T05:15:20;0.70;;;0.70;;
19927;SDS011;10126;50.876;4.470;2022-12-18T05:17:21;0.70;;;0.70;;
19927;SDS011;10126;50.876;4.470;2022-12-18T05:19:22;0.60;;;0.60;;
19927;SDS011;10126;50.876;4.470;2022-12-18T05:21:22;0.70;;;0.70;;
19927;SDS011;10126;50.876;4.470;2022-12-18T05:23:23;0.87;;;0.87;;
19927;SDS011;10126;50.876;4.470;2022-12-18T05:25:24;0.80;;;0.80;;
19927;SDS011;10126;50.876;4.470;2022-12-18T05:27:25;0.90;;;0.90;;
19927;SDS011;10126;50.876;4.470;2022-12-18T05:29:26;0.87;;;0.87;;
19927;SDS011;10126;50.876;4.470;2022-12-18T05:31:26;0.70;;;0.70;;
19927;SDS011;10126;50.876;4.470;2022-12-18T05:33:29;0.80;;;0.80;;
19927;SDS011;10126;50.876;4.470;2022-12-18T05:35:31;0.70;;;0.70;;
19927;SDS011;10126;50.876;4.470;2022-12-18T05:37:32;0.80;;;0.80;;
19927;SDS011;10126;50.876;4.470;2022-12-18T05:39:33;0.80;;;0.80;;
19927;SDS011;10126;50.876;4.470;2022-12-18T05:41:33;0.80;;;0.80;;
19927;SDS011;10126;50.876;4.470;2022-12-18T05:43:35;0.80;;;0.80;;
19927;SDS011;10126;50.876;4.470;2022-12-18T05:45:37;0.80;;;0.80;;
19927;SDS011;10126;50.876;4.470;2022-12-18T05:47:38;0.97;;;0.87;;
19927;SDS011;10126;50.876;4.470;2022-12-18T05:49:39;0.70;;;0.70;;
19927;SDS011;10126;50.876;4.470;2022-12-18T05:51:39;0.70;;;0.70;;
19927;SDS011;10126;50.876;4.470;2022-12-18T05:53:41;0.70;;;0.70;;
19927;SDS011;10126;50.876;4.470;2022-12-18T05:55:43;0.90;;;0.90;;
19927;SDS011;10126;50.876;4.470;2022-12-18T05:57:44;0.90;;;0.90;;
19927;SDS011;10126;50.876;4.470;2022-12-18T05:59:44;0.80;;;0.80;;
19927;SDS011;10126;50.876;4.470;2022-12-18T06:01:45;0.60;;;0.60;;
19927;SDS011;10126;50.876;4.470;2022-12-18T06:03:46;0.70;;;0.70;;
19927;SDS011;10126;50.876;4.470;2022-12-18T06:05:47;0.80;;;0.80;;
19927;SDS011;10126;50.876;4.470;2022-12-18T06:07:48;0.67;;;0.67;;
19927;SDS011;10126;50.876;4.470;2022-12-18T06:09:48;0.80;;;0.80;;
19927;SDS011;10126;50.876;4.470;2022-12-18T06:11:49;0.70;;;0.70;;
19927;SDS011;10126;50.876;4.470;2022-12-18T06:13:52;0.50;;;0.50;;
19927;SDS011;10126;50.876;4.470;2022-12-18T06:15:54;0.73;;;0.73;;
19927;SDS011;10126;50.876;4.470;2022-12-18T06:17:55;0.70;;;0.70;;
19927;SDS011;10126;50.876;4.470;2022-12-18T06:19:56;0.83;;;0.83;;
19927;SDS011;10126;50.876;4.470;2022-12-18T06:21:56;0.63;;;0.63;;
19927;SDS011;10126;50.876;4.470;2022-12-18T06:23:59;0.87;;;0.87;;
19927;SDS011;10126;50.876;4.470;2022-12-18T06:26:03;0.90;;;0.90;;
19927;SDS011;10126;50.876;4.470;2022-12-18T06:28:08;0.70;;;0.70;;
19927;SDS011;10126;50.876;4.470;2022-12-18T06:30:09;0.60;;;0.60;;
19927;SDS011;10126;50.876;4.470;2022-12-18T06:32:10;0.70;;;0.70;;
19927;SDS011;10126;50.876;4.470;2022-12-18T06:34:11;0.70;;;0.70;;
19927;SDS011;10126;50.876;4.470;2022-12-18T06:36:12;0.73;;;0.73;;
19927;SDS011;10126;50.876;4.470;2022-12-18T06:38:13;0.50;;;0.50;;
19927;SDS011;10126;50.876;4.470;2022-12-18T06:40:14;0.70;;;0.70;;
19927;SDS011;10126;50.876;4.470;2022-12-18T06:42:14;0.70;;;0.70;;
19927;SDS011;10126;50.876;4.470;2022-12-18T06:44:15;0.80;;;0.80;;
19927;SDS011;10126;50.876;4.470;2022-12-18T06:46:16;0.60;;;0.60;;
19927;SDS011;10126;50.876;4.470;2022-12-18T06:48:16;0.80;;;0.80;;
19927;SDS011;10126;50.876;4.470;2022-12-18T06:50:17;0.60;;;0.60;;
19927;SDS011;10126;50.876;4.470;2022-12-18T06:52:18;0.73;;;0.73;;
19927;SDS011;10126;50.876;4.470;2022-12-18T06:54:18;0.63;;;0.63;;
19927;SDS011;10126;50.876;4.470;2022-12-18T06:56:19;0.60;;;0.60;;
19927;SDS011;10126;50.876;4.470;2022-12-18T06:58:20;0.77;;;0.77;;
19927;SDS011;10126;50.876;4.470;2022-12-18T07:00:20;0.80;;;0.80;;
19927;SDS011;10126;50.876;4.470;2022-12-18T07:02:21;0.70;;;0.70;;
19927;SDS011;10126;50.876;4.470;2022-12-18T07:04:22;0.70;;;0.70;;
19927;SDS011;10126;50.876;4.470;2022-12-18T07:06:27;0.70;;;0.70;;
19927;SDS011;10126;50.876;4.470;2022-12-18T07:08:28;0.70;;;0.70;;
19927;SDS011;10126;50.876;4.470;2022-12-18T07:10:30;0.70;;;0.70;;
19927;SDS011;10126;50.876;4.470;2022-12-18T07:12:30;0.70;;;0.70;;
19927;SDS011;10126;50.876;4.470;2022-12-18T07:14:31;0.77;;;0.77;;
19927;SDS011;10126;50.876;4.470;2022-12-18T07:16:31;0.60;;;0.60;;
19927;SDS011;10126;50.876;4.470;2022-12-18T07:18:32;0.70;;;0.70;;
19927;SDS011;10126;50.876;4.470;2022-12-18T07:20:33;0.80;;;0.80;;
19927;SDS011;10126;50.876;4.470;2022-12-18T07:22:33;0.70;;;0.70;;
19927;SDS011;10126;50.876;4.470;2022-12-18T07:24:34;0.70;;;0.70;;
19927;SDS011;10126;50.876;4.470;2022-12-18T07:26:35;0.80;;;0.80;;
19927;SDS011;10126;50.876;4.470;2022-12-18T07:28:36;0.70;;;0.70;;
19927;SDS011;10126;50.876;4.470;2022-12-18T07:30:37;0.97;;;0.97;;
19927;SDS011;10126;50.876;4.470;2022-12-18T07:32:38;0.87;;;0.87;;
19927;SDS011;10126;50.876;4.470;2022-12-18T07:34:39;0.80;;;0.80;;
19927;SDS011;10126;50.876;4.470;2022-12-18T07:36:39;0.60;;;0.60;;
19927;SDS011;10126;50.876;4.470;2022-12-18T07:38:40;0.60;;;0.60;;
19927;SDS011;10126;50.876;4.470;2022-12-18T07:40:41;0.80;;;0.80;;
19927;SDS011;10126;50.876;4.470;2022-12-18T07:42:42;0.60;;;0.60;;
19927;SDS011;10126;50.876;4.470;2022-12-18T07:44:42;0.60;;;0.60;;
19927;SDS011;10126;50.876;4.470;2022-12-18T07:46:43;0.60;;;0.60;;
19927;SDS011;10126;50.876;4.470;2022-12-18T07:48:44;0.63;;;0.63;;
19927;SDS011;10126;50.876;4.470;2022-12-18T07:50:44;0.67;;;0.67;;
19927;SDS011;10126;50.876;4.470;2022-12-18T07:52:45;0.70;;;0.70;;
19927;SDS011;10126;50.876;4.470;2022-12-18T07:54:46;0.90;;;0.90;;
19927;SDS011;10126;50.876;4.470;2022-12-18T07:56:50;0.80;;;0.80;;
19927;SDS011;10126;50.876;4.470;2022-12-18T07:58:50;0.67;;;0.67;;
19927;SDS011;10126;50.876;4.470;2022-12-18T08:00:51;0.70;;;0.70;;
19927;SDS011;10126;50.876;4.470;2022-12-18T08:02:52;0.80;;;0.80;;
19927;SDS011;10126;50.876;4.470;2022-12-18T08:04:53;0.60;;;0.60;;
19927;SDS011;10126;50.876;4.470;2022-12-18T08:06:54;0.60;;;0.60;;
19927;SDS011;10126;50.876;4.470;2022-12-18T08:08:55;0.50;;;0.50;;
19927;SDS011;10126;50.876;4.470;2022-12-18T08:10:56;0.63;;;0.63;;
19927;SDS011;10126;50.876;4.470;2022-12-18T08:12:57;0.50;;;0.50;;
19927;SDS011;10126;50.876;4.470;2022-12-18T08:14:58;0.60;;;0.60;;
19927;SDS011;10126;50.876;4.470;2022-12-18T08:16:58;0.60;;;0.60;;
19927;SDS011;10126;50.876;4.470;2022-12-18T08:18:59;0.67;;;0.67;;
19927;SDS011;10126;50.876;4.470;2022-12-18T08:23:12;0.70;;;0.70;;
19927;SDS011;10126;50.876;4.470;2022-12-18T08:25:13;0.70;;;0.70;;
19927;SDS011;10126;50.876;4.470;2022-12-18T08:27:13;0.70;;;0.70;;
19927;SDS011;10126;50.876;4.470;2022-12-18T08:29:14;0.60;;;0.60;;
19927;SDS011;10126;50.876;4.470;2022-12-18T08:31:15;0.67;;;0.67;;
19927;SDS011;10126;50.876;4.470;2022-12-18T08:33:16;0.60;;;0.60;;
19927;SDS011;10126;50.876;4.470;2022-12-18T08:35:16;0.60;;;0.60;;
19927;SDS011;10126;50.876;4.470;2022-12-18T08:37:17;0.70;;;0.70;;
19927;SDS011;10126;50.876;4.470;2022-12-18T08:39:18;0.60;;;0.60;;
19927;SDS011;10126;50.876;4.470;2022-12-18T08:41:18;0.50;;;0.50;;
19927;SDS011;10126;50.876;4.470;2022-12-18T08:43:19;0.73;;;0.73;;
19927;SDS011;10126;50.876;4.470;2022-12-18T08:45:39;0.50;;;0.50;;
19927;SDS011;10126;50.876;4.470;2022-12-18T08:47:39;0.40;;;0.40;;
19927;SDS011;10126;50.876;4.470;2022-12-18T08:49:40;0.47;;;0.47;;
19927;SDS011;10126;50.876;4.470;2022-12-18T08:51:41;0.50;;;0.50;;
19927;SDS011;10126;50.876;4.470;2022-12-18T08:53:41;0.60;;;0.60;;
19927;SDS011;10126;50.876;4.470;2022-12-18T08:55:42;0.50;;;0.50;;
19927;SDS011;10126;50.876;4.470;2022-12-18T08:57:43;0.63;;;0.40;;
19927;SDS011;10126;50.876;4.470;2022-12-18T08:59:47;0.40;;;0.40;;
19927;SDS011;10126;50.876;4.470;2022-12-18T09:01:48;0.70;;;0.70;;
19927;SDS011;10126;50.876;4.470;2022-12-18T09:03:49;0.50;;;0.50;;
19927;SDS011;10126;50.876;4.470;2022-12-18T09:05:51;0.40;;;0.40;;
19927;SDS011;10126;50.876;4.470;2022-12-18T09:07:51;0.50;;;0.50;;
19927;SDS011;10126;50.876;4.470;2022-12-18T09:09:52;0.40;;;0.40;;
19927;SDS011;10126;50.876;4.470;2022-12-18T09:11:52;0.53;;;0.53;;
19927;SDS011;10126;50.876;4.470;2022-12-18T09:13:53;0.57;;;0.57;;
19927;SDS011;10126;50.876;4.470;2022-12-18T09:15:55;0.50;;;0.50;;
19927;SDS011;10126;50.876;4.470;2022-12-18T09:17:55;0.47;;;0.47;;
19927;SDS011;10126;50.876;4.470;2022-12-18T09:19:56;0.50;;;0.50;;
19927;SDS011;10126;50.876;4.470;2022-12-18T09:21:56;0.43;;;0.43;;
19927;SDS011;10126;50.876;4.470;2022-12-18T09:23:57;0.50;;;0.50;;
19927;SDS011;10126;50.876;4.470;2022-12-18T09:25:58;0.50;;;0.50;;
19927;SDS011;10126;50.876;4.470;2022-12-18T09:27:59;0.37;;;0.37;;
19927;SDS011;10126;50.876;4.470;2022-12-18T09:30:00;0.40;;;0.40;;
19927;SDS011;10126;50.876;4.470;2022-12-18T09:32:01;0.50;;;0.50;;
19927;SDS011;10126;50.876;4.470;2022-12-18T09:34:01;0.47;;;0.47;;
19927;SDS011;10126;50.876;4.470;2022-12-18T09:36:03;0.40;;;0.40;;
19927;SDS011;10126;50.876;4.470;2022-12-18T09:38:05;0.50;;;0.50;;
19927;SDS011;10126;50.876;4.470;2022-12-18T09:40:12;0.57;;;0.57;;
19927;SDS011;10126;50.876;4.470;2022-12-18T09:42:19;0.40;;;0.40;;
19927;SDS011;10126;50.876;4.470;2022-12-18T09:44:32;0.40;;;0.40;;
19927;SDS011;10126;50.876;4.470;2022-12-18T09:46:35;0.40;;;0.40;;
19927;SDS011;10126;50.876;4.470;2022-12-18T09:48:41;0.40;;;0.40;;
19927;SDS011;10126;50.876;4.470;2022-12-18T09:50:45;0.40;;;0.40;;
19927;SDS011;10126;50.876;4.470;2022-12-18T09:52:48;0.30;;;0.30;;
19927;SDS011;10126;50.876;4.470;2022-12-18T09:54:55;0.40;;;0.40;;
19927;SDS011;10126;50.876;4.470;2022-12-18T09:57:00;0.40;;;0.40;;
19927;SDS011;10126;50.876;4.470;2022-12-18T09:59:02;0.40;;;0.40;;
19927;SDS011;10126;50.876;4.470;2022-12-18T10:01:09;0.47;;;0.47;;
19927;SDS011;10126;50.876;4.470;2022-12-18T10:03:13;0.50;;;0.50;;
19927;SDS011;10126;50.876;4.470;2022-12-18T10:05:20;0.40;;;0.40;;
19927;SDS011;10126;50.876;4.470;2022-12-18T10:15:20;0.40;;;0.40;;
19927;SDS011;10126;50.876;4.470;2022-12-18T10:19:56;0.50;;;0.50;;
19927;SDS011;10126;50.876;4.470;2022-12-18T10:24:46;0.50;;;0.50;;
19927;SDS011;10126;50.876;4.470;2022-12-18T10:27:06;0.53;;;0.53;;
19927;SDS011;10126;50.876;4.470;2022-12-18T10:29:17;0.47;;;0.47;;
19927;SDS011;10126;50.876;4.470;2022-12-18T10:31:21;0.50;;;0.50;;
19927;SDS011;10126;50.876;4.470;2022-12-18T10:33:24;0.50;;;0.50;;
19927;SDS011;10126;50.876;4.470;2022-12-18T10:35:28;0.50;;;0.50;;
19927;SDS011;10126;50.876;4.470;2022-12-18T10:37:29;0.40;;;0.40;;
19927;SDS011;10126;50.876;4.470;2022-12-18T10:39:30;0.53;;;0.53;;
19927;SDS011;10126;50.876;4.470;2022-12-18T10:41:30;0.50;;;0.50;;
19927;SDS011;10126;50.876;4.470;2022-12-18T10:43:33;0.33;;;0.33;;
19927;SDS011;10126;50.876;4.470;2022-12-18T10:45:35;0.40;;;0.40;;
19927;SDS011;10126;50.876;4.470;2022-12-18T10:47:35;0.50;;;0.50;;
19927;SDS011;10126;50.876;4.470;2022-12-18T10:49:45;0.43;;;0.43;;
19927;SDS011;10126;50.876;4.470;2022-12-18T10:51:49;0.50;;;0.50;;
19927;SDS011;10126;50.876;4.470;2022-12-18T10:53:55;0.40;;;0.40;;
19927;SDS011;10126;50.876;4.470;2022-12-18T10:56:00;0.40;;;0.40;;
19927;SDS011;10126;50.876;4.470;2022-12-18T11:00:28;0.40;;;0.40;;
19927;SDS011;10126;50.876;4.470;2022-12-18T11:02:34;0.50;;;0.50;;
19927;SDS011;10126;50.876;4.470;2022-12-18T11:04:36;0.50;;;0.50;;
19927;SDS011;10126;50.876;4.470;2022-12-18T11:09:02;0.50;;;0.50;;
19927;SDS011;10126;50.876;4.470;2022-12-18T11:11:21;0.40;;;0.40;;
19927;SDS011;10126;50.876;4.470;2022-12-18T11:13:24;0.40;;;0.40;;
19927;SDS011;10126;50.876;4.470;2022-12-18T11:15:27;0.50;;;0.50;;
19927;SDS011;10126;50.876;4.470;2022-12-18T11:17:34;0.47;;;0.47;;
19927;SDS011;10126;50.876;4.470;2022-12-18T11:19:36;0.30;;;0.30;;
19927;SDS011;10126;50.876;4.470;2022-12-18T11:21:40;0.40;;;0.40;;
19927;SDS011;10126;50.876;4.470;2022-12-18T11:23:51;0.50;;;0.50;;
19927;SDS011;10126;50.876;4.470;2022-12-18T11:26:02;0.33;;;0.33;;
19927;SDS011;10126;50.876;4.470;2022-12-18T11:30:42;0.50;;;0.50;;
19927;SDS011;10126;50.876;4.470;2022-12-18T11:32:43;0.40;;;0.40;;
19927;SDS011;10126;50.876;4.470;2022-12-18T11:34:50;0.50;;;0.50;;
19927;SDS011;10126;50.876;4.470;2022-12-18T11:36:55;0.50;;;0.50;;
19927;SDS011;10126;50.876;4.470;2022-12-18T11:38:57;0.40;;;0.40;;
19927;SDS011;10126;50.876;4.470;2022-12-18T11:43:10;0.40;;;0.40;;
19927;SDS011;10126;50.876;4.470;2022-12-18T11:47:37;0.50;;;0.50;;
19927;SDS011;10126;50.876;4.470;2022-12-18T11:49:39;0.43;;;0.43;;
19927;SDS011;10126;50.876;4.470;2022-12-18T11:51:48;0.30;;;0.30;;
19927;SDS011;10126;50.876;4.470;2022-12-18T11:53:51;0.33;;;0.33;;
19927;SDS011;10126;50.876;4.470;2022-12-18T11:58:30;0.30;;;0.30;;
19927;SDS011;10126;50.876;4.470;2022-12-18T12:00:43;0.40;;;0.40;;
19927;SDS011;10126;50.876;4.470;2022-12-18T12:07:45;0.47;;;0.47;;
19927;SDS011;10126;50.876;4.470;2022-12-18T12:10:24;0.40;;;0.40;;
19927;SDS011;10126;50.876;4.470;2022-12-18T12:15:23;0.50;;;0.50;;
19927;SDS011;10126;50.876;4.470;2022-12-18T12:19:51;0.40;;;0.40;;
19927;SDS011;10126;50.876;4.470;2022-12-18T12:24:41;0.40;;;0.40;;
19927;SDS011;10126;50.876;4.470;2022-12-18T12:31:08;0.40;;;0.40;;
19927;SDS011;10126;50.876;4.470;2022-12-18T12:35:51;0.40;;;0.40;;
19927;SDS011;10126;50.876;4.470;2022-12-18T12:38:03;0.50;;;0.50;;
19927;SDS011;10126;50.876;4.470;2022-12-18T12:40:12;0.40;;;0.40;;
19927;SDS011;10126;50.876;4.470;2022-12-18T12:42:29;0.30;;;0.30;;
19927;SDS011;10126;50.876;4.470;2022-12-18T12:45:06;0.50;;;0.50;;
19927;SDS011;10126;50.876;4.470;2022-12-18T12:47:17;0.30;;;0.30;;
19927;SDS011;10126;50.876;4.470;2022-12-18T12:49:29;0.40;;;0.40;;
19927;SDS011;10126;50.876;4.470;2022-12-18T12:51:36;0.40;;;0.40;;
19927;SDS011;10126;50.876;4.470;2022-12-18T12:53:40;0.40;;;0.40;;
19927;SDS011;10126;50.876;4.470;2022-12-18T12:55:41;0.50;;;0.50;;
19927;SDS011;10126;50.876;4.470;2022-12-18T12:57:45;0.40;;;0.40;;
19927;SDS011;10126;50.876;4.470;2022-12-18T13:04:38;0.30;;;0.30;;
19927;SDS011;10126;50.876;4.470;2022-12-18T13:12:25;0.50;;;0.50;;
19927;SDS011;10126;50.876;4.470;2022-12-18T13:14:44;0.43;;;0.43;;
19927;SDS011;10126;50.876;4.470;2022-12-18T13:16:45;0.40;;;0.40;;
19927;SDS011;10126;50.876;4.470;2022-12-18T13:18:49;0.60;;;0.60;;
19927;SDS011;10126;50.876;4.470;2022-12-18T13:22:54;0.40;;;0.40;;
19927;SDS011;10126;50.876;4.470;2022-12-18T13:24:55;0.40;;;0.40;;
19927;SDS011;10126;50.876;4.470;2022-12-18T13:26:56;0.30;;;0.30;;
19927;SDS011;10126;50.876;4.470;2022-12-18T13:28:57;0.50;;;0.50;;
19927;SDS011;10126;50.876;4.470;2022-12-18T13:31:01;0.40;;;0.40;;
19927;SDS011;10126;50.876;4.470;2022-12-18T13:39:32;0.40;;;0.40;;
19927;SDS011;10126;50.876;4.470;2022-12-18T13:41:33;0.50;;;0.50;;
19927;SDS011;10126;50.876;4.470;2022-12-18T13:43:39;0.40;;;0.40;;
19927;SDS011;10126;50.876;4.470;2022-12-18T13:45:46;0.40;;;0.40;;
19927;SDS011;10126;50.876;4.470;2022-12-18T13:47:58;0.50;;;0.50;;
19927;SDS011;10126;50.876;4.470;2022-12-18T13:49:59;0.40;;;0.40;;
19927;SDS011;10126;50.876;4.470;2022-12-18T13:52:01;0.40;;;0.40;;